パナマ/トキュメン の空港の天気 - METARとTAF

トキュメン国際空港 ( MPTO / PTY ) - パナマ パナマ市
飛行場実況気象(Metar)
観測時間03/09 01:00 EST (03/09 06:00 UTC)
風向・風速不定 1m/s
視程10km以上
天気現象
全天の4割程度の雲 雲底高度 520m
気温24℃
湿度89%
気圧1013hPa
METARMPTO 090600Z VRB02KT 9999 SCT017 24/22 Q1013 NOSIG
過去の天気等 Google飛行場航空写真 Wunderground天気予報

過去48時間のMETAR

飛行場予報(TAF)
発表時間: 3/09 00:00 EST (3/09 05:00 UTC)
予報対象時間: 9日1時 EST ~ 10日7時 EST
風向・風速南南西 3m/s
視程10km以上
全天の4割程度の雲 雲底高度 520m
9日1時 EST ~ 9日3時 EST に一時的に
風向・風速不定 1m/s
9日12時 EST ~ 9日14時 EST に一時的に
風向・風速西 2m/s
TAF MPTO 090500Z 0906/1012 21006KT 9999 SCT017
TEMPO 0906/0908 VRB02KT
TEMPO 0917/0919 27004KT